Dorris, CA (96023)

6:49 AM PDT on August 27, 2014 (GMT -0700)
Cal-Ore Telephone | Change Station
CLOSE
Current Station
Personal Weather Station
Location: Dorris, CA
Elevation: 4270 ft
Nearby Weather Stations

Elev 4270 ft 41.96 °N, 121.93 °W | Updated 2 minutes ago

Clear
Clear
46.9 °F
Feels Like 47 °F
N
0.0
Wind Variable Wind from West
Gusts 0.0 mph

Today
High -- | Low -- °F
--% Chance of Precip.
Yesterday
High -- | Low -- °F
Precip. -- in
6:28 AM 7:49 PM
Waxing Crescent, 4% visible
Pressure 30.06 in
Visibility 10.0 miles
Clouds Clear
Windchill 47 °F
Dew Point 38 °F
Humidity 71%
Rainfall 0.00 in
Snow Depth Not available.
UV 0 out of 12
Pollen 6.30 out of 12
Air Quality Not available.
Flu Activity Not available.
METAR KLMT 271253Z AUTO 16004KT 10SM FU CLR 09/07 A3017 RMK AO2 SLP179 T00940067

More Conditions Fewer Conditions

Pressure 30.06 in
Visibility 10.0 miles
Clouds Clear
Windchill 47 °F
Dew Point 38 °F
Humidity 71%
Rainfall 0.00 in
Snow Depth Not available.
UV 0 out of 12
Pollen 6.30 out of 12
Air Quality Not available.
Flu Activity Not available.
METAR KLMT 271253Z AUTO 16004KT 10SM FU CLR 09/07 A3017 RMK AO2 SLP179 T00940067

More Conditions Fewer Conditions

10-Day Weather Forecast

Almanac

Astronomy

Aug. 27, 2014 Rise Set
Actual Time 6:28 AM PDT 7:49 PM PDT
Civil Twilight 5:59 AM PDT 8:18 PM PDT
Nautical Twilight 5:24 AM PDT 8:53 PM PDT
Astronomical Twilight 4:47 AM PDT 9:29 PM PDT
Moon 8:32 AM PDT 8:41 PM PDT
Length of Visible Light 14h 19m
Length of Day
13h 21m
Tomorrow will be 2m 40s shorter.
Waxing Crescent, 4% of the Moon is Illuminated
Today
Waxing Crescent
Sep 2
First Quarter
Sep 8
Full
Sep 15
Last Quarter
Sep 24
New

Today's Extremes

State Highs State Lows

Community

WunderPhotos

Upload Photos

1,747,684 photos uploaded!

Nearby

Snow Depth

Station Depth Elevation
Adin Mountain 1 in 6200 ft
Cedar Pass 0 in 7100 ft
Independence Creek 0 in 6500 ft
Independence Camp 0 in 7000 ft
CSS Lab 1 in 6900 ft

Earthquake Activity

City Distance Mag. Time & Date
Hayfork, California 127 miles 2.7 2:57 PM PDT
2014-08-25
Minimum magnitude displayed is 2.5.

Coastal Water Temperatures

Place Temperature
No Stations Reporting

Nearby Weather Stations